createdAt,value
2022-12-25T00:01:22.792Z,4.15
2022-12-25T00:03:50.388Z,3.76
2022-12-25T00:06:17.875Z,3.47
2022-12-25T00:08:44.673Z,3.25
2022-12-25T00:11:13.475Z,3.45
2022-12-25T00:13:41.064Z,3.95
2022-12-25T00:16:19.305Z,4.00
2022-12-25T00:18:47.029Z,3.84
2022-12-25T00:21:16.281Z,3.67
2022-12-25T00:23:43.450Z,3.51
2022-12-25T00:26:15.894Z,3.82
2022-12-25T00:28:42.913Z,4.15
2022-12-25T00:31:11.919Z,3.98
2022-12-25T00:33:40.036Z,4.04
2022-12-25T00:36:07.650Z,3.71
2022-12-25T00:38:35.755Z,3.45
2022-12-25T00:41:14.052Z,3.91
2022-12-25T00:43:44.508Z,4.43
2022-12-25T00:46:12.772Z,4.62
2022-12-25T00:48:40.192Z,4.34
2022-12-25T00:51:08.438Z,4.00
2022-12-25T00:53:35.367Z,3.69
2022-12-25T00:56:04.299Z,3.44
2022-12-25T00:58:32.640Z,3.66
2022-12-25T01:00:59.765Z,3.84
2022-12-25T01:03:26.804Z,3.96
2022-12-25T01:05:56.221Z,3.73
2022-12-25T01:08:23.171Z,3.46
2022-12-25T01:10:57.698Z,3.24
2022-12-25T01:13:24.843Z,3.62
2022-12-25T01:15:54.851Z,3.93
2022-12-25T01:18:22.728Z,3.83
2022-12-25T01:20:49.772Z,3.61
2022-12-25T01:23:17.057Z,3.48
2022-12-25T01:25:43.899Z,3.29
2022-12-25T01:28:10.894Z,3.46
2022-12-25T01:30:37.765Z,3.73
2022-12-25T01:33:05.002Z,3.69
2022-12-25T01:35:31.876Z,3.36
2022-12-25T01:37:58.712Z,3.23
2022-12-25T01:40:25.662Z,3.29
2022-12-25T01:42:53.001Z,3.51
2022-12-25T01:45:29.273Z,3.78
2022-12-25T01:47:56.242Z,3.65
2022-12-25T01:50:23.247Z,3.11
2022-12-25T01:52:50.080Z,3.08
2022-12-25T01:55:17.055Z,3.09
2022-12-25T01:57:44.074Z,3.31
2022-12-25T02:00:11.836Z,3.26
2022-12-25T02:02:39.001Z,3.36
2022-12-25T02:05:14.415Z,3.09
2022-12-25T02:07:41.606Z,3.18
2022-12-25T02:10:10.749Z,3.49
2022-12-25T02:12:37.906Z,3.48
2022-12-25T02:15:13.057Z,3.35
2022-12-25T02:18:01.734Z,3.06
2022-12-25T02:21:07.123Z,3.01
2022-12-25T02:24:05.249Z,3.45
2022-12-25T02:26:46.337Z,3.22
2022-12-25T02:29:17.956Z,3.29
2022-12-25T02:32:15.643Z,2.93
2022-12-25T02:35:02.868Z,3.07
2022-12-25T02:37:35.264Z,3.43
2022-12-25T02:40:15.399Z,3.16
2022-12-25T02:43:07.218Z,3.05
2022-12-25T02:46:18.265Z,2.78
2022-12-25T02:49:07.365Z,3.29
2022-12-25T02:51:54.792Z,3.42
2022-12-25T02:54:43.882Z,3.16
2022-12-25T02:57:30.654Z,2.88
2022-12-25T03:00:16.340Z,2.82
2022-12-25T03:03:02.157Z,3.05
2022-12-25T03:05:48.118Z,3.15
2022-12-25T03:08:18.770Z,3.08
2022-12-25T03:11:07.402Z,2.98
2022-12-25T03:13:36.598Z,3.13
2022-12-25T03:16:22.459Z,3.39
2022-12-25T03:18:49.567Z,3.20
2022-12-25T03:21:35.284Z,3.21
2022-12-25T03:24:21.319Z,2.89
2022-12-25T03:26:57.686Z,3.32
2022-12-25T03:30:01.585Z,3.10
2022-12-25T03:33:18.098Z,2.94
2022-12-25T03:36:05.929Z,2.74
2022-12-25T03:38:51.926Z,2.71
2022-12-25T03:41:53.451Z,3.11
2022-12-25T03:45:25.859Z,2.82
2022-12-25T03:48:18.654Z,2.90
2022-12-25T03:51:07.164Z,2.66
2022-12-25T03:54:05.693Z,3.02
2022-12-25T03:56:51.642Z,3.02
2022-12-25T03:59:38.352Z,3.13
2022-12-25T04:02:24.206Z,2.86
2022-12-25T04:05:10.228Z,2.84
2022-12-25T04:07:56.031Z,3.29
2022-12-25T04:10:41.831Z,3.48
2022-12-25T04:13:27.890Z,2.97
2022-12-25T04:16:21.105Z,2.84
2022-12-25T04:19:06.792Z,2.84
2022-12-25T04:21:52.632Z,3.41
2022-12-25T04:24:38.345Z,3.47
2022-12-25T04:27:24.328Z,3.22
2022-12-25T04:30:10.196Z,3.09
2022-12-25T04:32:55.781Z,2.75
2022-12-25T04:35:41.463Z,2.71
2022-12-25T04:38:08.316Z,2.97
2022-12-25T04:40:35.967Z,3.33
2022-12-25T04:43:02.803Z,3.26
2022-12-25T04:45:29.851Z,2.63
2022-12-25T04:47:59.839Z,2.51
2022-12-25T04:50:26.817Z,2.88
2022-12-25T04:52:53.696Z,3.24
2022-12-25T04:55:20.600Z,3.25
2022-12-25T04:57:47.507Z,2.89
2022-12-25T05:00:15.197Z,2.68
2022-12-25T05:02:42.206Z,2.60
2022-12-25T05:05:09.399Z,2.49
2022-12-25T05:07:36.256Z,2.88
2022-12-25T05:10:03.634Z,2.96
2022-12-25T05:12:30.551Z,2.84
2022-12-25T05:14:57.351Z,2.67
2022-12-25T05:17:24.523Z,2.45
2022-12-25T05:19:51.464Z,2.69
2022-12-25T05:22:18.281Z,3.22
2022-12-25T05:24:45.165Z,3.09
2022-12-25T05:27:11.996Z,3.02
2022-12-25T05:29:39.061Z,2.51
2022-12-25T05:32:06.084Z,2.36
2022-12-25T05:34:33.151Z,2.80
2022-12-25T05:37:00.191Z,2.85
2022-12-25T05:39:27.026Z,2.75
2022-12-25T05:41:53.889Z,2.59
2022-12-25T05:44:20.797Z,2.22
2022-12-25T05:46:47.770Z,2.20
2022-12-25T05:49:14.816Z,2.82
2022-12-25T05:51:41.782Z,2.69
2022-12-25T05:54:08.810Z,2.55
2022-12-25T05:56:37.750Z,2.24
2022-12-25T05:59:04.754Z,2.01
2022-12-25T06:01:31.902Z,2.56
2022-12-25T06:03:59.062Z,2.70
2022-12-25T06:06:26.029Z,2.55
2022-12-25T06:08:56.087Z,2.19
2022-12-25T06:11:23.044Z,2.13
2022-12-25T06:13:51.859Z,2.74
2022-12-25T06:16:19.226Z,2.84
2022-12-25T06:18:48.492Z,2.40
2022-12-25T06:21:15.535Z,2.37
2022-12-25T06:23:42.606Z,2.29
2022-12-25T06:26:11.798Z,2.04
2022-12-25T06:28:38.909Z,2.49
2022-12-25T06:31:11.688Z,2.56
2022-12-25T06:33:38.767Z,2.33
2022-12-25T06:36:10.695Z,2.29
2022-12-25T06:38:37.889Z,2.17
2022-12-25T06:41:12.603Z,2.44
2022-12-25T06:43:39.754Z,2.77
2022-12-25T06:46:11.895Z,2.75
2022-12-25T06:48:40.528Z,2.64
2022-12-25T06:51:07.546Z,2.18
2022-12-25T06:53:40.230Z,1.98
2022-12-25T06:56:18.364Z,2.48
2022-12-25T06:58:50.216Z,2.55
2022-12-25T07:01:20.285Z,2.56
2022-12-25T07:03:48.222Z,2.42
2022-12-25T07:06:15.347Z,2.39
2022-12-25T07:08:42.219Z,2.25
2022-12-25T07:11:09.208Z,2.86
2022-12-25T07:13:36.157Z,2.78
2022-12-25T07:16:04.312Z,2.54
2022-12-25T07:18:31.478Z,2.31
2022-12-25T07:20:59.909Z,2.13
2022-12-25T07:23:27.111Z,2.52
2022-12-25T07:26:00.916Z,3.08
2022-12-25T07:28:27.870Z,2.98
2022-12-25T07:30:54.907Z,2.72
2022-12-25T07:33:21.850Z,2.29
2022-12-25T07:35:48.902Z,2.24
2022-12-25T07:38:15.941Z,2.54
2022-12-25T07:40:46.381Z,2.48
2022-12-25T07:43:13.519Z,2.62
2022-12-25T07:45:40.461Z,2.58
2022-12-25T07:48:11.916Z,2.22
2022-12-25T07:50:42.358Z,2.16
2022-12-25T07:53:09.293Z,2.46
2022-12-25T07:55:36.177Z,2.61
2022-12-25T07:58:03.190Z,2.67
2022-12-25T08:00:34.132Z,2.37
2022-12-25T08:03:01.424Z,2.32
2022-12-25T08:05:28.554Z,2.18
2022-12-25T08:07:57.625Z,2.27
2022-12-25T08:10:25.483Z,2.91
2022-12-25T08:12:56.097Z,2.85
2022-12-25T08:15:23.122Z,2.47
2022-12-25T08:17:50.204Z,2.20
2022-12-25T08:20:17.115Z,2.26
2022-12-25T08:22:47.287Z,2.64
2022-12-25T08:25:15.941Z,2.90
2022-12-25T08:27:42.797Z,2.85
2022-12-25T08:30:09.939Z,2.43
2022-12-25T08:32:36.818Z,2.37
2022-12-25T08:35:03.817Z,2.13
2022-12-25T08:40:11.888Z,2.47
2022-12-25T08:42:38.766Z,2.47
2022-12-25T08:45:07.020Z,2.35
2022-12-25T08:47:34.179Z,2.01
2022-12-25T08:50:01.025Z,1.91
2022-12-25T08:52:28.848Z,2.15
2022-12-25T08:54:56.346Z,2.38
2022-12-25T08:57:23.283Z,2.26
2022-12-25T08:59:50.133Z,2.10
2022-12-25T09:02:17.191Z,1.84
2022-12-25T09:04:46.691Z,1.85
2022-12-25T09:07:13.516Z,2.36
2022-12-25T09:09:40.599Z,2.53
2022-12-25T09:12:07.677Z,2.43
2022-12-25T09:14:34.546Z,2.30
2022-12-25T09:17:01.628Z,1.90
2022-12-25T09:19:28.845Z,1.73
2022-12-25T09:21:55.791Z,2.15
2022-12-25T09:24:22.865Z,2.41
2022-12-25T09:26:49.819Z,2.22
2022-12-25T09:29:18.002Z,2.24
2022-12-25T09:31:44.929Z,1.89
2022-12-25T09:34:17.031Z,1.77
2022-12-25T09:36:45.688Z,2.17
2022-12-25T09:39:12.654Z,2.42
2022-12-25T09:41:54.378Z,2.48
2022-12-25T09:44:42.227Z,2.10
2022-12-25T09:47:12.284Z,2.08
2022-12-25T09:49:42.340Z,1.95
2022-12-25T09:52:12.014Z,2.19
2022-12-25T09:54:46.387Z,2.55
2022-12-25T09:57:13.787Z,2.56
2022-12-25T09:59:43.201Z,2.34
2022-12-25T10:03:01.038Z,1.88
2022-12-25T10:06:20.153Z,1.76
2022-12-25T10:09:40.507Z,2.20
2022-12-25T10:12:27.512Z,2.57
2022-12-25T10:15:12.979Z,2.38
2022-12-25T10:17:42.571Z,1.86
2022-12-25T10:20:16.415Z,1.86
2022-12-25T10:23:19.590Z,1.97
2022-12-25T10:25:46.587Z,2.52
2022-12-25T10:28:23.698Z,2.71
2022-12-25T10:30:50.594Z,2.46
2022-12-25T10:33:17.621Z,2.05
2022-12-25T10:35:44.475Z,1.88
2022-12-25T10:38:13.875Z,1.98
2022-12-25T10:41:05.402Z,2.26
2022-12-25T10:43:55.548Z,2.21
2022-12-25T10:46:24.435Z,1.79
2022-12-25T10:49:00.704Z,2.18
2022-12-25T10:51:38.409Z,2.16
2022-12-25T10:54:25.006Z,2.09
2022-12-25T10:57:02.572Z,2.12
2022-12-25T10:59:34.193Z,2.35
2022-12-25T11:02:10.471Z,2.59
2022-12-25T11:04:37.481Z,2.22
2022-12-25T11:07:14.507Z,2.36
2022-12-25T11:09:49.514Z,2.18
2022-12-25T11:12:20.222Z,1.93
2022-12-25T11:14:58.944Z,2.63
2022-12-25T11:17:26.158Z,2.56
2022-12-25T11:20:01.010Z,2.62
2022-12-25T11:22:29.375Z,2.44
2022-12-25T11:24:56.386Z,2.23
2022-12-25T11:27:28.033Z,1.95
2022-12-25T11:29:59.872Z,2.07
2022-12-25T11:32:31.318Z,2.59
2022-12-25T11:34:58.530Z,2.57
2022-12-25T11:37:33.723Z,2.40
2022-12-25T11:40:00.638Z,2.25
2022-12-25T11:42:32.524Z,2.11
2022-12-25T11:45:03.912Z,2.12
2022-12-25T11:47:35.876Z,2.63
2022-12-25T11:50:46.489Z,2.85
2022-12-25T11:53:27.266Z,2.70
2022-12-25T11:55:56.521Z,2.47
2022-12-25T11:58:49.799Z,2.38
2022-12-25T12:01:19.637Z,2.15
2022-12-25T12:03:46.587Z,1.96
2022-12-25T12:07:01.205Z,2.61
2022-12-25T12:09:46.884Z,2.56
2022-12-25T12:12:27.637Z,2.13
2022-12-25T12:15:08.437Z,1.84
2022-12-25T12:17:35.305Z,1.46
2022-12-25T12:20:34.877Z,1.42
2022-12-25T12:23:02.808Z,1.88
2022-12-25T12:25:29.920Z,2.20
2022-12-25T12:28:05.173Z,2.11
2022-12-25T12:30:34.833Z,1.95
2022-12-25T12:33:03.248Z,1.95
2022-12-25T12:35:34.786Z,1.73
2022-12-25T12:38:01.708Z,1.63
2022-12-25T12:40:35.590Z,2.08
2022-12-25T12:43:05.978Z,2.38
2022-12-25T12:45:35.250Z,2.48
2022-12-25T12:48:02.461Z,2.07
2022-12-25T12:50:38.162Z,1.65
2022-12-25T12:56:16.530Z,1.44
2022-12-25T12:58:51.108Z,2.05
2022-12-25T13:01:31.282Z,2.17
2022-12-25T13:04:18.862Z,1.98
2022-12-25T13:07:04.529Z,1.79
2022-12-25T13:09:40.449Z,1.52
2022-12-25T13:12:08.302Z,1.14
2022-12-25T13:14:35.326Z,1.32
2022-12-25T13:17:02.341Z,1.75
2022-12-25T13:19:29.336Z,1.96
2022-12-25T13:22:01.131Z,1.63
2022-12-25T13:24:29.908Z,1.33
2022-12-25T13:26:56.909Z,1.33
2022-12-25T13:29:30.083Z,1.12
2022-12-25T13:31:58.237Z,1.63
2022-12-25T13:34:38.096Z,1.84
2022-12-25T13:37:09.629Z,1.55
2022-12-25T13:39:36.895Z,1.41
2022-12-25T13:42:06.200Z,1.26
2022-12-25T13:44:40.412Z,1.12
2022-12-25T13:47:21.565Z,1.46
2022-12-25T13:49:48.825Z,1.73
2022-12-25T13:52:18.917Z,1.88
2022-12-25T13:55:02.561Z,1.81
2022-12-25T13:57:39.799Z,1.46
2022-12-25T14:00:08.260Z,1.28
2022-12-25T14:02:36.612Z,1.19
2022-12-25T14:05:26.952Z,1.56
2022-12-25T14:07:55.030Z,2.09
2022-12-25T14:10:23.178Z,1.99
2022-12-25T14:12:51.312Z,1.74
2022-12-25T14:15:21.147Z,1.41
2022-12-25T14:17:49.065Z,1.08
2022-12-25T14:20:26.668Z,1.13
2022-12-25T14:22:55.599Z,1.56
2022-12-25T14:25:29.819Z,1.92
2022-12-25T14:28:07.266Z,1.81
2022-12-25T14:30:35.819Z,1.49
2022-12-25T14:33:07.582Z,1.25
2022-12-25T14:35:37.270Z,0.99
2022-12-25T14:38:07.291Z,0.97
2022-12-25T14:40:37.311Z,1.49
2022-12-25T14:43:25.738Z,2.04
2022-12-25T14:46:01.332Z,1.76
2022-12-25T14:48:36.260Z,1.71
2022-12-25T14:51:08.737Z,1.59
2022-12-25T14:53:39.313Z,1.48
2022-12-25T14:56:14.311Z,1.33
2022-12-25T14:58:45.310Z,1.19
2022-12-25T15:01:40.605Z,1.73
2022-12-25T15:04:16.950Z,2.32
2022-12-25T15:06:59.950Z,2.28
2022-12-25T15:09:30.085Z,1.93
2022-12-25T15:12:00.511Z,1.72
2022-12-25T15:14:31.755Z,1.58
2022-12-25T15:17:02.358Z,1.36
2022-12-25T15:19:38.677Z,1.58
2022-12-25T15:22:09.484Z,2.19
2022-12-25T15:24:39.875Z,2.38
2022-12-25T15:27:18.479Z,2.26
2022-12-25T15:37:22.739Z,1.58
2022-12-25T15:39:49.807Z,1.37
2022-12-25T15:42:21.962Z,1.80
2022-12-25T15:44:48.998Z,2.30
2022-12-25T15:47:16.852Z,2.31
2022-12-25T15:49:43.903Z,2.12
2022-12-25T15:52:13.463Z,1.88
2022-12-25T15:54:40.387Z,1.56
2022-12-25T15:57:12.352Z,1.33
2022-12-25T15:59:39.356Z,1.14
2022-12-25T16:02:09.934Z,1.60
2022-12-25T16:04:41.234Z,2.23
2022-12-25T16:07:14.484Z,2.24
2022-12-25T16:09:41.686Z,2.05
2022-12-25T16:12:08.625Z,1.81
2022-12-25T16:14:35.810Z,1.45
2022-12-25T16:17:03.249Z,1.18
2022-12-25T16:19:30.257Z,1.15
2022-12-25T16:21:57.153Z,1.88
2022-12-25T16:24:24.065Z,2.21
2022-12-25T16:26:51.037Z,2.18
2022-12-25T16:29:18.361Z,1.95
2022-12-25T16:31:45.628Z,1.67
2022-12-25T16:34:13.188Z,1.36
2022-12-25T16:36:40.256Z,1.15
2022-12-25T16:39:07.205Z,1.67
2022-12-25T16:41:34.225Z,2.19
2022-12-25T16:44:10.219Z,2.20
2022-12-25T16:46:38.740Z,2.01
2022-12-25T16:49:05.802Z,1.79
2022-12-25T16:51:32.891Z,1.54
2022-12-25T16:54:00.134Z,1.45
2022-12-25T16:56:28.714Z,1.83
2022-12-25T16:58:56.932Z,2.43
2022-12-25T17:01:24.549Z,2.52
2022-12-25T17:03:51.835Z,2.39
2022-12-25T17:06:26.838Z,2.12
2022-12-25T17:08:56.741Z,1.94
2022-12-25T17:11:27.409Z,1.76
2022-12-25T17:13:54.659Z,1.57
2022-12-25T17:16:26.703Z,2.00
2022-12-25T17:18:55.761Z,2.65
2022-12-25T17:21:27.820Z,2.79
2022-12-25T17:23:59.776Z,2.62
2022-12-25T17:26:31.410Z,2.26
2022-12-25T17:29:05.680Z,2.02
2022-12-25T17:31:33.034Z,1.87
2022-12-25T17:34:01.381Z,1.73
2022-12-25T17:36:28.713Z,2.04
2022-12-25T17:38:55.802Z,2.54
2022-12-25T17:41:22.948Z,2.69
2022-12-25T17:43:49.933Z,2.47
2022-12-25T17:46:18.945Z,2.19
2022-12-25T17:48:46.000Z,1.91
2022-12-25T17:51:14.825Z,1.63
2022-12-25T17:53:43.946Z,1.44
2022-12-25T17:56:11.057Z,1.89
2022-12-25T17:58:38.204Z,2.44
2022-12-25T18:01:09.862Z,2.49
2022-12-25T18:03:37.160Z,2.30
2022-12-25T18:06:07.164Z,2.02
2022-12-25T18:08:39.353Z,1.75
2022-12-25T18:11:08.791Z,1.49
2022-12-25T18:13:35.969Z,1.33
2022-12-25T18:16:05.292Z,1.77
2022-12-25T18:18:34.395Z,2.37
2022-12-25T18:21:02.425Z,2.49
2022-12-25T18:23:29.591Z,2.34
2022-12-25T18:25:56.928Z,2.06
2022-12-25T18:28:24.962Z,1.81
2022-12-25T18:30:52.085Z,1.61
2022-12-25T18:33:19.092Z,1.45
2022-12-25T18:35:47.311Z,1.86
2022-12-25T18:38:17.353Z,2.49
2022-12-25T18:40:45.662Z,2.63
2022-12-25T18:43:12.915Z,2.48
2022-12-25T18:45:40.693Z,2.24
2022-12-25T18:48:08.530Z,2.04
2022-12-25T18:50:36.533Z,1.84
2022-12-25T18:53:04.990Z,1.65
2022-12-25T18:55:32.348Z,2.12
2022-12-25T18:57:59.391Z,2.73
2022-12-25T19:00:31.069Z,2.80
2022-12-25T19:02:59.067Z,2.68
2022-12-25T19:05:28.517Z,2.50
2022-12-25T19:07:55.577Z,2.32
2022-12-25T19:10:22.713Z,2.16
2022-12-25T19:12:49.759Z,2.01
2022-12-25T19:15:16.870Z,2.40
2022-12-25T19:17:44.067Z,2.98
2022-12-25T19:20:12.283Z,3.08
2022-12-25T19:22:39.290Z,2.94
2022-12-25T19:25:09.956Z,2.71
2022-12-25T19:27:39.122Z,2.44
2022-12-25T19:30:11.055Z,2.23
2022-12-25T19:32:38.525Z,2.05
2022-12-25T19:35:07.176Z,2.45
2022-12-25T19:37:35.388Z,3.09
2022-12-25T19:40:02.422Z,3.17
2022-12-25T19:42:29.401Z,2.98
2022-12-25T19:44:56.422Z,2.70
2022-12-25T19:47:23.330Z,2.41
2022-12-25T19:49:53.177Z,2.13
2022-12-25T19:52:20.942Z,1.88
2022-12-25T19:54:51.540Z,2.21
2022-12-25T19:57:18.529Z,2.74
2022-12-25T19:59:48.650Z,2.79
2022-12-25T20:02:15.878Z,2.57
2022-12-25T20:04:43.928Z,2.27
2022-12-25T20:07:11.267Z,2.01
2022-12-25T20:09:38.429Z,1.77
2022-12-25T20:12:06.111Z,1.59
2022-12-25T20:14:33.019Z,2.02
2022-12-25T20:17:00.131Z,2.64
2022-12-25T20:19:27.222Z,2.77
2022-12-25T20:21:58.688Z,2.63
2022-12-25T20:24:25.662Z,2.40
2022-12-25T20:26:58.608Z,2.15
2022-12-25T20:29:26.291Z,1.93
2022-12-25T20:31:53.995Z,1.74
2022-12-25T20:34:21.146Z,1.58
2022-12-25T20:36:49.415Z,2.01
2022-12-25T20:39:16.442Z,2.64
2022-12-25T20:41:43.422Z,2.75
2022-12-25T20:44:10.564Z,2.59
2022-12-25T20:46:38.094Z,2.37
2022-12-25T20:49:05.098Z,2.13
2022-12-25T20:51:32.199Z,1.91
2022-12-25T20:53:59.084Z,1.74
2022-12-25T20:56:26.807Z,2.15
2022-12-25T20:58:58.245Z,2.76
2022-12-25T21:01:25.899Z,2.86
2022-12-25T21:03:53.661Z,2.67
2022-12-25T21:06:21.446Z,2.30
2022-12-25T21:08:48.272Z,2.06
2022-12-25T21:11:15.790Z,1.87
2022-12-25T21:13:43.607Z,1.68
2022-12-25T21:16:20.297Z,2.09
2022-12-25T21:18:48.297Z,2.66
2022-12-25T21:21:15.233Z,2.61
2022-12-25T21:23:42.552Z,2.39
2022-12-25T21:26:20.649Z,2.18
2022-12-25T21:28:51.902Z,1.92
2022-12-25T21:31:19.077Z,1.68
2022-12-25T21:33:52.315Z,1.47
2022-12-25T21:36:27.563Z,1.96
2022-12-25T21:39:05.735Z,2.62
2022-12-25T21:41:33.451Z,2.73
2022-12-25T21:44:00.727Z,2.53
2022-12-25T21:46:28.137Z,2.29
2022-12-25T21:48:55.417Z,2.05
2022-12-25T21:51:42.755Z,1.82
2022-12-25T21:54:09.880Z,1.67
2022-12-25T21:56:43.545Z,2.26
2022-12-25T21:59:16.673Z,2.94
2022-12-25T22:01:44.232Z,3.06
2022-12-25T22:04:11.724Z,2.89
2022-12-25T22:06:57.373Z,2.68
2022-12-25T22:09:24.454Z,2.44
2022-12-25T22:12:10.205Z,2.22
2022-12-25T22:14:57.066Z,2.03
2022-12-25T22:17:45.358Z,2.60
2022-12-25T22:20:19.782Z,3.12
2022-12-25T22:22:47.036Z,3.08
2022-12-25T22:25:14.281Z,2.75
2022-12-25T22:27:42.362Z,2.47
2022-12-25T22:30:14.755Z,2.18
2022-12-25T22:32:41.604Z,1.88
2022-12-25T22:35:09.418Z,1.68
2022-12-25T22:37:38.091Z,2.13
2022-12-25T22:40:06.487Z,2.73
2022-12-25T22:42:33.449Z,2.83
2022-12-25T22:45:00.375Z,2.67
2022-12-25T22:47:27.281Z,2.41
2022-12-25T22:49:54.288Z,2.14
2022-12-25T22:52:21.231Z,1.87
2022-12-25T22:54:48.170Z,1.67
2022-12-25T22:57:15.125Z,2.07
2022-12-25T22:59:42.208Z,2.65
2022-12-25T23:02:09.291Z,2.72
2022-12-25T23:04:36.464Z,2.56
2022-12-25T23:07:03.414Z,2.31
2022-12-25T23:09:30.916Z,2.01
2022-12-25T23:11:58.451Z,1.76
2022-12-25T23:14:41.970Z,1.58
2022-12-25T23:17:30.915Z,2.11
2022-12-25T23:20:18.057Z,2.62
2022-12-25T23:23:04.339Z,2.51
2022-12-25T23:25:50.190Z,2.27
2022-12-25T23:28:39.980Z,1.98
2022-12-25T23:31:06.977Z,1.67
2022-12-25T23:33:34.048Z,1.45
2022-12-25T23:36:01.050Z,1.93
2022-12-25T23:38:28.081Z,2.51
2022-12-25T23:40:55.041Z,2.63
2022-12-25T23:43:22.082Z,2.41
2022-12-25T23:45:49.023Z,2.20
2022-12-25T23:50:35.595Z,1.81
2022-12-25T23:53:02.483Z,1.60
2022-12-25T23:55:29.474Z,2.05
2022-12-25T23:57:56.504Z,2.66
